sensor_id;sensor_type;location;lat;lon;timestamp;P1;durP1;ratioP1;P2;durP2;ratioP2
64085;SDS011;50333;47.436;21.390;2022-10-16T00:01:21;19.48;;;14.27;;
64085;SDS011;50333;47.436;21.390;2022-10-16T00:03:52;22.35;;;15.00;;
64085;SDS011;50333;47.436;21.390;2022-10-16T00:06:20;20.23;;;14.65;;
64085;SDS011;50333;47.436;21.390;2022-10-16T00:08:49;22.40;;;14.65;;
64085;SDS011;50333;47.436;21.390;2022-10-16T00:11:24;27.77;;;14.43;;
64085;SDS011;50333;47.436;21.390;2022-10-16T00:13:56;20.80;;;15.05;;
64085;SDS011;50333;47.436;21.390;2022-10-16T00:16:27;21.17;;;14.68;;
64085;SDS011;50333;47.436;21.390;2022-10-16T00:18:55;32.45;;;16.08;;
64085;SDS011;50333;47.436;21.390;2022-10-16T00:21:25;24.70;;;15.35;;
64085;SDS011;50333;47.436;21.390;2022-10-16T00:23:58;24.58;;;16.12;;
64085;SDS011;50333;47.436;21.390;2022-10-16T00:26:29;23.55;;;15.90;;
64085;SDS011;50333;47.436;21.390;2022-10-16T00:28:58;28.60;;;17.35;;
64085;SDS011;50333;47.436;21.390;2022-10-16T00:31:27;28.15;;;17.52;;
64085;SDS011;50333;47.436;21.390;2022-10-16T00:33:55;26.67;;;16.55;;
64085;SDS011;50333;47.436;21.390;2022-10-16T00:36:23;31.58;;;17.67;;
64085;SDS011;50333;47.436;21.390;2022-10-16T00:38:55;29.35;;;17.37;;
64085;SDS011;50333;47.436;21.390;2022-10-16T00:41:32;28.58;;;16.85;;
64085;SDS011;50333;47.436;21.390;2022-10-16T00:44:01;25.08;;;16.70;;
64085;SDS011;50333;47.436;21.390;2022-10-16T00:46:35;23.55;;;15.55;;
64085;SDS011;50333;47.436;21.390;2022-10-16T00:49:07;25.33;;;15.93;;
64085;SDS011;50333;47.436;21.390;2022-10-16T00:51:37;27.95;;;15.13;;
64085;SDS011;50333;47.436;21.390;2022-10-16T00:54:14;28.33;;;15.55;;
64085;SDS011;50333;47.436;21.390;2022-10-16T00:56:45;22.17;;;14.48;;
64085;SDS011;50333;47.436;21.390;2022-10-16T00:59:15;28.33;;;15.48;;
64085;SDS011;50333;47.436;21.390;2022-10-16T01:01:52;20.33;;;15.23;;
64085;SDS011;50333;47.436;21.390;2022-10-16T01:04:20;21.30;;;14.85;;
64085;SDS011;50333;47.436;21.390;2022-10-16T01:12:17;20.80;;;15.02;;
64085;SDS011;50333;47.436;21.390;2022-10-16T01:14:59;17.75;;;14.05;;
64085;SDS011;50333;47.436;21.390;2022-10-16T01:22:48;23.33;;;14.43;;
64085;SDS011;50333;47.436;21.390;2022-10-16T01:26:00;20.75;;;15.50;;
64085;SDS011;50333;47.436;21.390;2022-10-16T01:29:29;20.45;;;13.98;;
64085;SDS011;50333;47.436;21.390;2022-10-16T01:32:10;22.40;;;14.43;;
64085;SDS011;50333;47.436;21.390;2022-10-16T01:34:52;19.52;;;13.10;;
64085;SDS011;50333;47.436;21.390;2022-10-16T01:37:36;21.23;;;13.57;;
64085;SDS011;50333;47.436;21.390;2022-10-16T01:40:12;20.35;;;14.57;;
64085;SDS011;50333;47.436;21.390;2022-10-16T01:42:46;19.15;;;12.90;;
64085;SDS011;50333;47.436;21.390;2022-10-16T01:45:18;18.75;;;12.55;;
64085;SDS011;50333;47.436;21.390;2022-10-16T01:47:47;19.58;;;13.20;;
64085;SDS011;50333;47.436;21.390;2022-10-16T01:50:19;19.67;;;13.80;;
64085;SDS011;50333;47.436;21.390;2022-10-16T01:52:49;21.05;;;14.57;;
64085;SDS011;50333;47.436;21.390;2022-10-16T01:55:22;18.95;;;14.57;;
64085;SDS011;50333;47.436;21.390;2022-10-16T01:57:57;23.02;;;13.70;;
64085;SDS011;50333;47.436;21.390;2022-10-16T02:00:27;18.30;;;13.77;;
64085;SDS011;50333;47.436;21.390;2022-10-16T02:02:55;19.95;;;13.95;;
64085;SDS011;50333;47.436;21.390;2022-10-16T02:05:30;22.00;;;13.80;;
64085;SDS011;50333;47.436;21.390;2022-10-16T02:08:01;22.10;;;14.35;;
64085;SDS011;50333;47.436;21.390;2022-10-16T02:10:32;21.90;;;14.77;;
64085;SDS011;50333;47.436;21.390;2022-10-16T02:13:06;20.80;;;13.75;;
64085;SDS011;50333;47.436;21.390;2022-10-16T02:15:38;17.83;;;13.52;;
64085;SDS011;50333;47.436;21.390;2022-10-16T02:18:05;17.25;;;13.05;;
64085;SDS011;50333;47.436;21.390;2022-10-16T02:20:55;16.23;;;13.05;;
64085;SDS011;50333;47.436;21.390;2022-10-16T02:26:18;16.52;;;13.18;;
64085;SDS011;50333;47.436;21.390;2022-10-16T02:28:55;22.33;;;13.48;;
64085;SDS011;50333;47.436;21.390;2022-10-16T02:31:29;19.33;;;13.23;;
64085;SDS011;50333;47.436;21.390;2022-10-16T02:34:02;21.23;;;13.18;;
64085;SDS011;50333;47.436;21.390;2022-10-16T02:36:32;23.48;;;12.35;;
64085;SDS011;50333;47.436;21.390;2022-10-16T02:39:03;16.80;;;12.02;;
64085;SDS011;50333;47.436;21.390;2022-10-16T02:41:31;19.20;;;13.32;;
64085;SDS011;50333;47.436;21.390;2022-10-16T02:44:00;19.42;;;12.85;;
64085;SDS011;50333;47.436;21.390;2022-10-16T02:46:27;18.02;;;13.43;;
64085;SDS011;50333;47.436;21.390;2022-10-16T02:48:55;15.48;;;12.82;;
64085;SDS011;50333;47.436;21.390;2022-10-16T02:51:23;18.25;;;12.45;;
64085;SDS011;50333;47.436;21.390;2022-10-16T02:53:52;16.67;;;11.63;;
64085;SDS011;50333;47.436;21.390;2022-10-16T02:56:20;15.68;;;11.98;;
64085;SDS011;50333;47.436;21.390;2022-10-16T02:58:48;16.30;;;12.13;;
64085;SDS011;50333;47.436;21.390;2022-10-16T03:01:16;21.77;;;13.05;;
64085;SDS011;50333;47.436;21.390;2022-10-16T03:03:44;19.30;;;12.50;;
64085;SDS011;50333;47.436;21.390;2022-10-16T03:06:11;16.27;;;12.50;;
64085;SDS011;50333;47.436;21.390;2022-10-16T03:08:39;17.67;;;12.27;;
64085;SDS011;50333;47.436;21.390;2022-10-16T03:11:07;23.38;;;13.10;;
64085;SDS011;50333;47.436;21.390;2022-10-16T03:13:34;18.20;;;12.90;;
64085;SDS011;50333;47.436;21.390;2022-10-16T03:16:03;22.73;;;13.43;;
64085;SDS011;50333;47.436;21.390;2022-10-16T03:18:31;20.65;;;13.05;;
64085;SDS011;50333;47.436;21.390;2022-10-16T03:20:58;24.90;;;13.15;;
64085;SDS011;50333;47.436;21.390;2022-10-16T03:23:26;22.92;;;14.45;;
64085;SDS011;50333;47.436;21.390;2022-10-16T03:26:00;19.45;;;13.10;;
64085;SDS011;50333;47.436;21.390;2022-10-16T03:28:28;21.50;;;13.35;;
64085;SDS011;50333;47.436;21.390;2022-10-16T03:30:55;17.50;;;13.00;;
64085;SDS011;50333;47.436;21.390;2022-10-16T03:33:23;17.58;;;12.07;;
64085;SDS011;50333;47.436;21.390;2022-10-16T03:35:52;21.98;;;13.40;;
64085;SDS011;50333;47.436;21.390;2022-10-16T03:38:20;20.30;;;13.32;;
64085;SDS011;50333;47.436;21.390;2022-10-16T03:40:48;22.35;;;14.20;;
64085;SDS011;50333;47.436;21.390;2022-10-16T03:43:16;18.87;;;13.52;;
64085;SDS011;50333;47.436;21.390;2022-10-16T03:45:44;17.55;;;12.55;;
64085;SDS011;50333;47.436;21.390;2022-10-16T03:48:11;17.05;;;13.52;;
64085;SDS011;50333;47.436;21.390;2022-10-16T03:50:39;18.90;;;14.00;;
64085;SDS011;50333;47.436;21.390;2022-10-16T03:53:07;24.85;;;14.68;;
64085;SDS011;50333;47.436;21.390;2022-10-16T03:55:34;21.25;;;16.75;;
64085;SDS011;50333;47.436;21.390;2022-10-16T03:58:03;22.62;;;16.62;;
64085;SDS011;50333;47.436;21.390;2022-10-16T04:00:30;20.98;;;14.73;;
64085;SDS011;50333;47.436;21.390;2022-10-16T04:02:58;20.35;;;14.18;;
64085;SDS011;50333;47.436;21.390;2022-10-16T04:05:26;19.98;;;13.57;;
64085;SDS011;50333;47.436;21.390;2022-10-16T04:07:54;20.37;;;13.93;;
64085;SDS011;50333;47.436;21.390;2022-10-16T04:10:22;20.77;;;13.55;;
64085;SDS011;50333;47.436;21.390;2022-10-16T04:12:50;24.05;;;13.77;;
64085;SDS011;50333;47.436;21.390;2022-10-16T04:15:17;19.90;;;12.70;;
64085;SDS011;50333;47.436;21.390;2022-10-16T04:17:46;20.73;;;12.63;;
64085;SDS011;50333;47.436;21.390;2022-10-16T04:20:14;19.55;;;12.82;;
64085;SDS011;50333;47.436;21.390;2022-10-16T04:22:42;16.75;;;12.93;;
64085;SDS011;50333;47.436;21.390;2022-10-16T04:25:10;18.58;;;12.23;;
64085;SDS011;50333;47.436;21.390;2022-10-16T04:27:38;14.90;;;12.25;;
64085;SDS011;50333;47.436;21.390;2022-10-16T04:30:12;16.30;;;12.20;;
64085;SDS011;50333;47.436;21.390;2022-10-16T04:32:40;16.62;;;11.30;;
64085;SDS011;50333;47.436;21.390;2022-10-16T04:35:08;18.10;;;12.07;;
64085;SDS011;50333;47.436;21.390;2022-10-16T04:37:36;17.10;;;12.52;;
64085;SDS011;50333;47.436;21.390;2022-10-16T04:40:04;14.82;;;11.55;;
64085;SDS011;50333;47.436;21.390;2022-10-16T04:42:32;17.15;;;11.35;;
64085;SDS011;50333;47.436;21.390;2022-10-16T04:44:59;14.32;;;11.00;;
64085;SDS011;50333;47.436;21.390;2022-10-16T04:47:27;14.80;;;12.02;;
64085;SDS011;50333;47.436;21.390;2022-10-16T04:49:56;17.02;;;11.80;;
64085;SDS011;50333;47.436;21.390;2022-10-16T04:52:25;16.10;;;12.27;;
64085;SDS011;50333;47.436;21.390;2022-10-16T04:54:53;16.00;;;11.23;;
64085;SDS011;50333;47.436;21.390;2022-10-16T04:57:21;21.70;;;11.93;;
64085;SDS011;50333;47.436;21.390;2022-10-16T04:59:49;16.48;;;12.07;;
64085;SDS011;50333;47.436;21.390;2022-10-16T05:02:17;21.23;;;12.82;;
64085;SDS011;50333;47.436;21.390;2022-10-16T05:04:44;21.98;;;13.30;;
64085;SDS011;50333;47.436;21.390;2022-10-16T05:07:12;15.55;;;12.02;;
64085;SDS011;50333;47.436;21.390;2022-10-16T05:09:40;23.90;;;13.35;;
64085;SDS011;50333;47.436;21.390;2022-10-16T05:12:07;16.62;;;11.70;;
64085;SDS011;50333;47.436;21.390;2022-10-16T05:14:35;17.65;;;11.50;;
64085;SDS011;50333;47.436;21.390;2022-10-16T05:17:03;17.85;;;13.10;;
64085;SDS011;50333;47.436;21.390;2022-10-16T05:19:31;17.73;;;11.52;;
64085;SDS011;50333;47.436;21.390;2022-10-16T05:21:59;14.90;;;12.07;;
64085;SDS011;50333;47.436;21.390;2022-10-16T05:24:26;21.87;;;12.25;;
64085;SDS011;50333;47.436;21.390;2022-10-16T05:26:54;17.00;;;11.50;;
64085;SDS011;50333;47.436;21.390;2022-10-16T05:29:23;17.87;;;12.37;;
64085;SDS011;50333;47.436;21.390;2022-10-16T05:31:51;16.60;;;12.23;;
64085;SDS011;50333;47.436;21.390;2022-10-16T05:34:20;24.33;;;13.25;;
64085;SDS011;50333;47.436;21.390;2022-10-16T05:36:48;21.67;;;12.68;;
64085;SDS011;50333;47.436;21.390;2022-10-16T05:39:16;26.25;;;13.48;;
64085;SDS011;50333;47.436;21.390;2022-10-16T05:41:44;20.00;;;13.82;;
64085;SDS011;50333;47.436;21.390;2022-10-16T05:44:12;19.05;;;12.95;;
64085;SDS011;50333;47.436;21.390;2022-10-16T05:46:39;20.23;;;12.85;;
64085;SDS011;50333;47.436;21.390;2022-10-16T05:49:07;19.40;;;12.82;;
64085;SDS011;50333;47.436;21.390;2022-10-16T05:51:35;21.73;;;13.35;;
64085;SDS011;50333;47.436;21.390;2022-10-16T05:54:03;18.95;;;14.10;;
64085;SDS011;50333;47.436;21.390;2022-10-16T05:56:30;21.55;;;13.98;;
64085;SDS011;50333;47.436;21.390;2022-10-16T05:58:58;17.92;;;13.73;;
64085;SDS011;50333;47.436;21.390;2022-10-16T06:01:26;20.60;;;13.23;;
64085;SDS011;50333;47.436;21.390;2022-10-16T06:03:54;19.95;;;13.15;;
64085;SDS011;50333;47.436;21.390;2022-10-16T06:06:22;17.77;;;13.20;;
64085;SDS011;50333;47.436;21.390;2022-10-16T06:08:54;19.45;;;13.10;;
64085;SDS011;50333;47.436;21.390;2022-10-16T06:11:24;15.65;;;11.90;;
64085;SDS011;50333;47.436;21.390;2022-10-16T06:13:56;14.95;;;12.20;;
64085;SDS011;50333;47.436;21.390;2022-10-16T06:16:26;18.73;;;11.77;;
64085;SDS011;50333;47.436;21.390;2022-10-16T06:18:54;16.23;;;11.43;;
64085;SDS011;50333;47.436;21.390;2022-10-16T06:21:24;15.80;;;11.60;;
64085;SDS011;50333;47.436;21.390;2022-10-16T06:23:53;17.80;;;11.50;;
64085;SDS011;50333;47.436;21.390;2022-10-16T06:26:22;15.93;;;11.75;;
64085;SDS011;50333;47.436;21.390;2022-10-16T06:28:53;14.68;;;10.57;;
64085;SDS011;50333;47.436;21.390;2022-10-16T06:31:23;18.15;;;11.18;;
64085;SDS011;50333;47.436;21.390;2022-10-16T06:33:54;18.17;;;11.40;;
64085;SDS011;50333;47.436;21.390;2022-10-16T06:36:23;15.57;;;10.70;;
64085;SDS011;50333;47.436;21.390;2022-10-16T06:38:51;18.85;;;10.48;;
64085;SDS011;50333;47.436;21.390;2022-10-16T06:41:20;19.90;;;10.75;;
64085;SDS011;50333;47.436;21.390;2022-10-16T06:43:50;16.33;;;10.27;;
64085;SDS011;50333;47.436;21.390;2022-10-16T06:46:18;19.95;;;11.38;;
64085;SDS011;50333;47.436;21.390;2022-10-16T06:48:49;14.77;;;9.55;;
64085;SDS011;50333;47.436;21.390;2022-10-16T06:51:18;13.80;;;10.25;;
64085;SDS011;50333;47.436;21.390;2022-10-16T06:53:51;18.33;;;10.27;;
64085;SDS011;50333;47.436;21.390;2022-10-16T06:56:30;15.50;;;9.48;;
64085;SDS011;50333;47.436;21.390;2022-10-16T06:58:59;16.40;;;9.82;;
64085;SDS011;50333;47.436;21.390;2022-10-16T07:01:27;14.02;;;10.15;;
64085;SDS011;50333;47.436;21.390;2022-10-16T07:03:55;15.63;;;9.95;;
64085;SDS011;50333;47.436;21.390;2022-10-16T07:06:24;10.68;;;8.60;;
64085;SDS011;50333;47.436;21.390;2022-10-16T07:08:53;12.93;;;9.77;;
64085;SDS011;50333;47.436;21.390;2022-10-16T07:11:22;12.35;;;9.80;;
64085;SDS011;50333;47.436;21.390;2022-10-16T07:13:50;12.63;;;9.27;;
64085;SDS011;50333;47.436;21.390;2022-10-16T07:16:24;20.98;;;9.55;;
64085;SDS011;50333;47.436;21.390;2022-10-16T07:18:54;13.85;;;8.85;;
64085;SDS011;50333;47.436;21.390;2022-10-16T07:21:28;12.05;;;9.27;;
64085;SDS011;50333;47.436;21.390;2022-10-16T07:23:58;13.68;;;8.75;;
64085;SDS011;50333;47.436;21.390;2022-10-16T07:26:29;14.77;;;9.07;;
64085;SDS011;50333;47.436;21.390;2022-10-16T07:28:58;16.48;;;8.57;;
64085;SDS011;50333;47.436;21.390;2022-10-16T07:31:26;11.43;;;8.32;;
64085;SDS011;50333;47.436;21.390;2022-10-16T07:33:54;11.40;;;8.43;;
64085;SDS011;50333;47.436;21.390;2022-10-16T07:36:22;15.57;;;8.00;;
64085;SDS011;50333;47.436;21.390;2022-10-16T07:38:50;10.52;;;7.05;;
64085;SDS011;50333;47.436;21.390;2022-10-16T07:41:23;13.00;;;7.80;;
64085;SDS011;50333;47.436;21.390;2022-10-16T07:43:52;11.15;;;7.50;;
64085;SDS011;50333;47.436;21.390;2022-10-16T07:46:22;10.52;;;7.57;;
64085;SDS011;50333;47.436;21.390;2022-10-16T07:48:50;9.82;;;7.70;;
64085;SDS011;50333;47.436;21.390;2022-10-16T07:51:19;13.70;;;7.15;;
64085;SDS011;50333;47.436;21.390;2022-10-16T07:53:48;11.20;;;7.70;;
64085;SDS011;50333;47.436;21.390;2022-10-16T07:56:19;7.65;;;6.65;;
64085;SDS011;50333;47.436;21.390;2022-10-16T07:58:49;13.18;;;7.32;;
64085;SDS011;50333;47.436;21.390;2022-10-16T08:01:18;10.90;;;7.60;;
64085;SDS011;50333;47.436;21.390;2022-10-16T08:03:48;9.38;;;6.90;;
64085;SDS011;50333;47.436;21.390;2022-10-16T08:08:53;11.38;;;7.50;;
64085;SDS011;50333;47.436;21.390;2022-10-16T08:11:24;10.50;;;5.18;;
64085;SDS011;50333;47.436;21.390;2022-10-16T08:13:51;6.00;;;4.90;;
64085;SDS011;50333;47.436;21.390;2022-10-16T08:16:19;9.98;;;5.30;;
64085;SDS011;50333;47.436;21.390;2022-10-16T08:18:48;12.50;;;5.07;;
64085;SDS011;50333;47.436;21.390;2022-10-16T08:21:19;9.53;;;4.73;;
64085;SDS011;50333;47.436;21.390;2022-10-16T08:23:53;11.02;;;5.05;;
64085;SDS011;50333;47.436;21.390;2022-10-16T08:26:25;6.57;;;5.10;;
64085;SDS011;50333;47.436;21.390;2022-10-16T08:28:54;12.02;;;5.00;;
64085;SDS011;50333;47.436;21.390;2022-10-16T08:31:23;10.32;;;5.22;;
64085;SDS011;50333;47.436;21.390;2022-10-16T08:33:51;5.18;;;4.68;;
64085;SDS011;50333;47.436;21.390;2022-10-16T08:36:20;12.20;;;4.78;;
64085;SDS011;50333;47.436;21.390;2022-10-16T08:38:48;9.90;;;5.03;;
64085;SDS011;50333;47.436;21.390;2022-10-16T08:49:25;7.53;;;3.95;;
64085;SDS011;50333;47.436;21.390;2022-10-16T08:51:54;5.55;;;4.43;;
64085;SDS011;50333;47.436;21.390;2022-10-16T08:57:25;8.20;;;3.80;;
64085;SDS011;50333;47.436;21.390;2022-10-16T08:59:54;7.60;;;3.90;;
64085;SDS011;50333;47.436;21.390;2022-10-16T09:07:49;4.75;;;3.80;;
64085;SDS011;50333;47.436;21.390;2022-10-16T09:10:42;4.68;;;3.65;;
64085;SDS011;50333;47.436;21.390;2022-10-16T09:19:01;10.25;;;3.65;;
64085;SDS011;50333;47.436;21.390;2022-10-16T09:21:31;6.10;;;3.70;;
64085;SDS011;50333;47.436;21.390;2022-10-16T09:24:12;4.55;;;3.60;;
64085;SDS011;50333;47.436;21.390;2022-10-16T09:26:42;7.40;;;3.47;;
64085;SDS011;50333;47.436;21.390;2022-10-16T09:29:14;5.25;;;3.72;;
64085;SDS011;50333;47.436;21.390;2022-10-16T09:31:47;7.45;;;4.45;;
64085;SDS011;50333;47.436;21.390;2022-10-16T09:34:32;4.47;;;3.58;;
64085;SDS011;50333;47.436;21.390;2022-10-16T09:37:04;6.90;;;3.90;;
64085;SDS011;50333;47.436;21.390;2022-10-16T09:39:44;10.23;;;3.97;;
64085;SDS011;50333;47.436;21.390;2022-10-16T09:42:14;12.15;;;4.07;;
64085;SDS011;50333;47.436;21.390;2022-10-16T09:44:48;4.05;;;3.40;;
64085;SDS011;50333;47.436;21.390;2022-10-16T09:47:19;3.90;;;3.50;;
64085;SDS011;50333;47.436;21.390;2022-10-16T09:49:58;7.43;;;4.05;;
64085;SDS011;50333;47.436;21.390;2022-10-16T09:52:29;5.93;;;4.00;;
64085;SDS011;50333;47.436;21.390;2022-10-16T09:54:58;6.22;;;3.78;;
64085;SDS011;50333;47.436;21.390;2022-10-16T09:57:28;5.90;;;3.65;;
64085;SDS011;50333;47.436;21.390;2022-10-16T09:59:58;9.38;;;3.83;;
64085;SDS011;50333;47.436;21.390;2022-10-16T10:04:57;5.93;;;3.60;;
64085;SDS011;50333;47.436;21.390;2022-10-16T10:07:29;5.72;;;3.92;;
64085;SDS011;50333;47.436;21.390;2022-10-16T10:10:03;8.48;;;4.05;;
64085;SDS011;50333;47.436;21.390;2022-10-16T10:12:32;6.95;;;3.97;;
64085;SDS011;50333;47.436;21.390;2022-10-16T10:15:04;14.87;;;3.87;;
64085;SDS011;50333;47.436;21.390;2022-10-16T10:17:32;8.45;;;4.20;;
64085;SDS011;50333;47.436;21.390;2022-10-16T10:23:01;4.47;;;3.47;;
64085;SDS011;50333;47.436;21.390;2022-10-16T10:44:30;5.55;;;3.30;;
64085;SDS011;50333;47.436;21.390;2022-10-16T11:01:11;7.12;;;3.78;;
64085;SDS011;50333;47.436;21.390;2022-10-16T11:06:26;5.15;;;3.60;;
64085;SDS011;50333;47.436;21.390;2022-10-16T11:14:14;3.92;;;3.30;;
64085;SDS011;50333;47.436;21.390;2022-10-16T11:17:02;5.30;;;3.75;;
64085;SDS011;50333;47.436;21.390;2022-10-16T11:22:18;7.68;;;3.80;;
64085;SDS011;50333;47.436;21.390;2022-10-16T11:24:54;6.55;;;4.00;;
64085;SDS011;50333;47.436;21.390;2022-10-16T11:27:31;10.40;;;3.70;;
64085;SDS011;50333;47.436;21.390;2022-10-16T11:30:16;5.45;;;3.58;;
64085;SDS011;50333;47.436;21.390;2022-10-16T11:33:10;7.87;;;3.50;;
64085;SDS011;50333;47.436;21.390;2022-10-16T11:47:07;5.82;;;3.28;;
64085;SDS011;50333;47.436;21.390;2022-10-16T11:49:58;5.47;;;4.00;;
64085;SDS011;50333;47.436;21.390;2022-10-16T11:52:44;5.85;;;3.45;;
64085;SDS011;50333;47.436;21.390;2022-10-16T11:55:24;5.15;;;3.50;;
64085;SDS011;50333;47.436;21.390;2022-10-16T11:58:03;5.18;;;3.22;;
64085;SDS011;50333;47.436;21.390;2022-10-16T12:03:31;3.70;;;3.35;;
64085;SDS011;50333;47.436;21.390;2022-10-16T12:08:52;6.65;;;3.45;;
64085;SDS011;50333;47.436;21.390;2022-10-16T12:14:06;7.62;;;3.30;;
64085;SDS011;50333;47.436;21.390;2022-10-16T12:16:53;7.80;;;3.28;;
64085;SDS011;50333;47.436;21.390;2022-10-16T12:19:26;5.85;;;3.72;;
64085;SDS011;50333;47.436;21.390;2022-10-16T12:21:56;6.12;;;3.35;;
64085;SDS011;50333;47.436;21.390;2022-10-16T12:24:36;7.57;;;3.50;;
64085;SDS011;50333;47.436;21.390;2022-10-16T12:27:17;7.35;;;3.65;;
64085;SDS011;50333;47.436;21.390;2022-10-16T12:29:54;6.32;;;3.15;;
64085;SDS011;50333;47.436;21.390;2022-10-16T12:35:20;5.00;;;3.12;;
64085;SDS011;50333;47.436;21.390;2022-10-16T12:37:54;5.97;;;3.33;;
64085;SDS011;50333;47.436;21.390;2022-10-16T12:40:33;4.22;;;3.30;;
64085;SDS011;50333;47.436;21.390;2022-10-16T12:46:39;4.18;;;3.20;;
64085;SDS011;50333;47.436;21.390;2022-10-16T12:48:49;5.15;;;3.08;;
64085;SDS011;50333;47.436;21.390;2022-10-16T12:51:34;7.45;;;3.33;;
64085;SDS011;50333;47.436;21.390;2022-10-16T13:05:54;5.43;;;3.55;;
64085;SDS011;50333;47.436;21.390;2022-10-16T13:08:44;7.05;;;3.62;;
64085;SDS011;50333;47.436;21.390;2022-10-16T13:14:19;4.90;;;3.00;;
64085;SDS011;50333;47.436;21.390;2022-10-16T13:23:14;12.70;;;7.75;;
64085;SDS011;50333;47.436;21.390;2022-10-16T13:25:43;4.68;;;3.35;;
64085;SDS011;50333;47.436;21.390;2022-10-16T13:28:12;5.37;;;3.62;;
64085;SDS011;50333;47.436;21.390;2022-10-16T13:30:44;6.65;;;3.35;;
64085;SDS011;50333;47.436;21.390;2022-10-16T13:33:20;5.55;;;2.80;;
64085;SDS011;50333;47.436;21.390;2022-10-16T13:36:19;3.40;;;2.92;;
64085;SDS011;50333;47.436;21.390;2022-10-16T13:38:48;6.93;;;3.75;;
64085;SDS011;50333;47.436;21.390;2022-10-16T13:41:28;4.57;;;3.42;;
64085;SDS011;50333;47.436;21.390;2022-10-16T13:43:56;3.97;;;3.53;;
64085;SDS011;50333;47.436;21.390;2022-10-16T13:46:25;6.15;;;3.20;;
64085;SDS011;50333;47.436;21.390;2022-10-16T13:49:00;4.43;;;3.35;;
64085;SDS011;50333;47.436;21.390;2022-10-16T13:51:32;6.35;;;3.35;;
64085;SDS011;50333;47.436;21.390;2022-10-16T13:54:00;3.70;;;3.30;;
64085;SDS011;50333;47.436;21.390;2022-10-16T13:56:29;9.48;;;3.80;;
64085;SDS011;50333;47.436;21.390;2022-10-16T13:59:02;4.93;;;3.10;;
64085;SDS011;50333;47.436;21.390;2022-10-16T14:01:40;4.45;;;3.30;;
64085;SDS011;50333;47.436;21.390;2022-10-16T14:04:11;4.47;;;3.30;;
64085;SDS011;50333;47.436;21.390;2022-10-16T14:06:41;6.40;;;3.60;;
64085;SDS011;50333;47.436;21.390;2022-10-16T14:12:11;6.28;;;3.80;;
64085;SDS011;50333;47.436;21.390;2022-10-16T14:14:40;4.12;;;3.30;;
64085;SDS011;50333;47.436;21.390;2022-10-16T14:17:18;4.22;;;3.28;;
64085;SDS011;50333;47.436;21.390;2022-10-16T14:19:50;7.47;;;3.50;;
64085;SDS011;50333;47.436;21.390;2022-10-16T14:22:34;4.90;;;3.30;;
64085;SDS011;50333;47.436;21.390;2022-10-16T14:30:54;7.37;;;4.10;;
64085;SDS011;50333;47.436;21.390;2022-10-16T14:38:37;8.60;;;3.50;;
64085;SDS011;50333;47.436;21.390;2022-10-16T14:41:06;4.57;;;3.53;;
64085;SDS011;50333;47.436;21.390;2022-10-16T14:43:38;5.03;;;3.45;;
64085;SDS011;50333;47.436;21.390;2022-10-16T14:46:11;7.20;;;3.28;;
64085;SDS011;50333;47.436;21.390;2022-10-16T14:48:42;9.93;;;3.60;;
64085;SDS011;50333;47.436;21.390;2022-10-16T14:51:14;6.30;;;3.60;;
64085;SDS011;50333;47.436;21.390;2022-10-16T14:53:43;10.13;;;4.30;;
64085;SDS011;50333;47.436;21.390;2022-10-16T14:56:16;5.60;;;3.90;;
64085;SDS011;50333;47.436;21.390;2022-10-16T14:58:47;4.57;;;3.60;;
64085;SDS011;50333;47.436;21.390;2022-10-16T15:01:17;14.63;;;3.70;;
64085;SDS011;50333;47.436;21.390;2022-10-16T15:03:45;6.82;;;4.03;;
64085;SDS011;50333;47.436;21.390;2022-10-16T15:06:14;7.35;;;3.67;;
64085;SDS011;50333;47.436;21.390;2022-10-16T15:08:43;11.40;;;3.83;;
64085;SDS011;50333;47.436;21.390;2022-10-16T15:11:18;8.60;;;3.92;;
64085;SDS011;50333;47.436;21.390;2022-10-16T15:13:47;8.45;;;4.03;;
64085;SDS011;50333;47.436;21.390;2022-10-16T15:16:15;8.13;;;4.32;;
64085;SDS011;50333;47.436;21.390;2022-10-16T15:18:43;9.55;;;4.37;;
64085;SDS011;50333;47.436;21.390;2022-10-16T15:21:21;9.23;;;3.80;;
64085;SDS011;50333;47.436;21.390;2022-10-16T15:23:50;9.52;;;4.07;;
64085;SDS011;50333;47.436;21.390;2022-10-16T15:26:18;7.12;;;4.43;;
64085;SDS011;50333;47.436;21.390;2022-10-16T15:28:46;15.98;;;4.80;;
64085;SDS011;50333;47.436;21.390;2022-10-16T15:31:13;13.05;;;4.20;;
64085;SDS011;50333;47.436;21.390;2022-10-16T15:33:41;19.27;;;5.43;;
64085;SDS011;50333;47.436;21.390;2022-10-16T15:36:09;17.52;;;5.47;;
64085;SDS011;50333;47.436;21.390;2022-10-16T15:38:37;14.20;;;5.10;;
64085;SDS011;50333;47.436;21.390;2022-10-16T15:41:04;9.57;;;5.70;;
64085;SDS011;50333;47.436;21.390;2022-10-16T15:43:32;10.93;;;5.65;;
64085;SDS011;50333;47.436;21.390;2022-10-16T15:46:04;11.20;;;6.03;;
64085;SDS011;50333;47.436;21.390;2022-10-16T15:48:33;10.25;;;5.28;;
64085;SDS011;50333;47.436;21.390;2022-10-16T15:51:05;10.23;;;5.37;;
64085;SDS011;50333;47.436;21.390;2022-10-16T15:53:34;18.10;;;5.75;;
64085;SDS011;50333;47.436;21.390;2022-10-16T15:56:03;14.75;;;5.93;;
64085;SDS011;50333;47.436;21.390;2022-10-16T15:58:34;23.17;;;6.10;;
64085;SDS011;50333;47.436;21.390;2022-10-16T16:01:03;15.75;;;5.62;;
64085;SDS011;50333;47.436;21.390;2022-10-16T16:03:32;9.48;;;5.47;;
64085;SDS011;50333;47.436;21.390;2022-10-16T16:06:03;13.88;;;6.00;;
64085;SDS011;50333;47.436;21.390;2022-10-16T16:08:36;14.77;;;5.87;;
64085;SDS011;50333;47.436;21.390;2022-10-16T16:11:08;22.02;;;6.12;;
64085;SDS011;50333;47.436;21.390;2022-10-16T16:13:38;18.80;;;7.32;;
64085;SDS011;50333;47.436;21.390;2022-10-16T16:16:07;14.87;;;6.18;;
64085;SDS011;50333;47.436;21.390;2022-10-16T16:18:37;14.98;;;6.28;;
64085;SDS011;50333;47.436;21.390;2022-10-16T16:21:05;14.18;;;6.07;;
64085;SDS011;50333;47.436;21.390;2022-10-16T16:23:34;18.58;;;6.40;;
64085;SDS011;50333;47.436;21.390;2022-10-16T16:28:53;21.60;;;8.30;;
64085;SDS011;50333;47.436;21.390;2022-10-16T16:31:24;21.57;;;10.17;;
64085;SDS011;50333;47.436;21.390;2022-10-16T16:33:53;37.97;;;19.35;;
64085;SDS011;50333;47.436;21.390;2022-10-16T16:36:23;39.90;;;21.50;;
64085;SDS011;50333;47.436;21.390;2022-10-16T16:38:51;36.30;;;24.90;;
64085;SDS011;50333;47.436;21.390;2022-10-16T16:41:21;34.42;;;22.15;;
64085;SDS011;50333;47.436;21.390;2022-10-16T16:43:52;39.30;;;22.65;;
64085;SDS011;50333;47.436;21.390;2022-10-16T16:46:21;37.70;;;22.90;;
64085;SDS011;50333;47.436;21.390;2022-10-16T16:48:49;33.58;;;21.27;;
64085;SDS011;50333;47.436;21.390;2022-10-16T16:51:18;30.52;;;21.02;;
64085;SDS011;50333;47.436;21.390;2022-10-16T16:53:49;40.03;;;21.30;;
64085;SDS011;50333;47.436;21.390;2022-10-16T16:56:19;39.55;;;20.90;;
64085;SDS011;50333;47.436;21.390;2022-10-16T16:58:49;37.60;;;20.20;;
64085;SDS011;50333;47.436;21.390;2022-10-16T17:01:18;32.67;;;17.10;;
64085;SDS011;50333;47.436;21.390;2022-10-16T17:03:48;28.70;;;17.25;;
64085;SDS011;50333;47.436;21.390;2022-10-16T17:06:20;37.30;;;17.70;;
64085;SDS011;50333;47.436;21.390;2022-10-16T17:08:48;26.73;;;16.85;;
64085;SDS011;50333;47.436;21.390;2022-10-16T17:11:21;34.13;;;17.80;;
64085;SDS011;50333;47.436;21.390;2022-10-16T17:13:50;43.70;;;18.10;;